createdAt,value
2022-09-11T00:02:25.902Z,96642.97
2022-09-11T00:04:52.260Z,96642.97
2022-09-11T00:07:18.589Z,96639.84
2022-09-11T00:09:44.913Z,96640.44
2022-09-11T00:12:11.223Z,96641.63
2022-09-11T00:14:37.534Z,96640.44
2022-09-11T00:17:03.869Z,96634.00
2022-09-11T00:19:30.199Z,96642.09
2022-09-11T00:21:56.524Z,96641.31
2022-09-11T00:24:22.844Z,96637.84
2022-09-11T00:26:49.174Z,96633.69
2022-09-11T00:29:15.491Z,96639.03
2022-09-11T00:31:41.906Z,96630.72
2022-09-11T00:34:08.310Z,96632.31
2022-09-11T00:36:34.635Z,96635.28
2022-09-11T00:39:00.944Z,96628.34
2022-09-11T00:41:27.291Z,96629.94
2022-09-11T00:43:53.618Z,96628.06
2022-09-11T00:46:19.942Z,96632.50
2022-09-11T00:48:46.269Z,96621.94
2022-09-11T00:51:12.575Z,96625.41
2022-09-11T00:53:38.920Z,96623.63
2022-09-11T00:56:05.265Z,96618.28
2022-09-11T00:58:31.582Z,96617.28
2022-09-11T01:00:57.951Z,96617.47
2022-09-11T01:03:24.320Z,96619.38
2022-09-11T01:05:50.686Z,96613.53
2022-09-11T01:08:17.028Z,96602.25
2022-09-11T01:10:43.348Z,96610.84
2022-09-11T01:13:09.672Z,96601.88
2022-09-11T01:15:35.978Z,96605.81
2022-09-11T01:18:02.304Z,96605.63
2022-09-11T01:20:28.616Z,96610.34
2022-09-11T01:22:54.933Z,96607.91
2022-09-11T01:25:21.268Z,96601.47
2022-09-11T01:27:47.588Z,96604.94
2022-09-11T01:30:13.909Z,96612.94
2022-09-11T01:32:40.239Z,96609.75
2022-09-11T01:35:06.596Z,96614.50
2022-09-11T01:37:32.931Z,96605.03
2022-09-11T01:39:59.322Z,96610.34
2022-09-11T01:42:25.680Z,96604.63
2022-09-11T01:44:51.997Z,96610.34
2022-09-11T01:47:18.322Z,96605.03
2022-09-11T01:49:44.644Z,96606.19
2022-09-11T01:52:10.973Z,96616.28
2022-09-11T01:54:37.283Z,96615.31
2022-09-11T01:57:03.600Z,96613.53
2022-09-11T01:59:29.926Z,96608.41
2022-09-11T02:01:56.294Z,96609.47
2022-09-11T02:04:22.636Z,96599.28
2022-09-11T02:06:48.956Z,96609.75
2022-09-11T02:09:15.281Z,96605.78
2022-09-11T02:11:41.601Z,96604.81
2022-09-11T02:14:07.913Z,96601.84
2022-09-11T02:16:34.290Z,96602.22
2022-09-11T02:19:00.616Z,96605.41
2022-09-11T02:21:26.927Z,96606.97
2022-09-11T02:23:53.249Z,96605.41
2022-09-11T02:26:19.580Z,96598.47
2022-09-11T02:28:45.905Z,96603.50
2022-09-11T02:31:12.304Z,96601.63
2022-09-11T02:33:38.767Z,96601.41
2022-09-11T02:36:05.123Z,96604.59
2022-09-11T02:38:31.431Z,96604.81
2022-09-11T02:40:57.761Z,96604.22
2022-09-11T02:43:24.078Z,96603.19
2022-09-11T02:45:50.414Z,96604.88
2022-09-11T02:48:16.792Z,96600.06
2022-09-11T02:50:43.128Z,96600.84
2022-09-11T02:53:09.454Z,96598.16
2022-09-11T02:55:35.782Z,96601.13
2022-09-11T02:58:02.108Z,96596.47
2022-09-11T03:00:28.423Z,96594.88
2022-09-11T03:02:54.737Z,96599.63
2022-09-11T03:05:21.047Z,96594.31
2022-09-11T03:07:47.383Z,96599.13
2022-09-11T03:10:13.703Z,96594.97
2022-09-11T03:12:40.023Z,96599.25
2022-09-11T03:15:06.355Z,96590.94
2022-09-11T03:17:32.677Z,96595.47
2022-09-11T03:19:58.998Z,96597.06
2022-09-11T03:22:25.326Z,96597.16
2022-09-11T03:24:51.662Z,96592.91
2022-09-11T03:27:17.989Z,96583.81
2022-09-11T03:29:44.308Z,96587.38
2022-09-11T03:32:10.627Z,96584.59
2022-09-11T03:34:36.956Z,96574.53
2022-09-11T03:37:03.280Z,96576.81
2022-09-11T03:39:29.604Z,96573.75
2022-09-11T03:41:55.928Z,96573.75
2022-09-11T03:44:22.235Z,96569.00
2022-09-11T03:46:48.569Z,96565.84
2022-09-11T03:49:14.897Z,96569.00
2022-09-11T03:51:41.212Z,96570.00
2022-09-11T03:54:07.538Z,96572.66
2022-09-11T03:56:33.856Z,96574.34
2022-09-11T03:59:00.211Z,96564.72
2022-09-11T04:01:26.564Z,96571.16
2022-09-11T04:03:52.898Z,96570.56
2022-09-11T04:06:19.215Z,96565.03
2022-09-11T04:08:45.534Z,96571.75
2022-09-11T04:11:11.858Z,96564.13
2022-09-11T04:13:38.180Z,96574.69
2022-09-11T04:16:04.573Z,96569.88
2022-09-11T04:18:30.944Z,96572.94
2022-09-11T04:20:57.255Z,96566.59
2022-09-11T04:23:23.563Z,96570.94
2022-09-11T04:25:49.888Z,96572.94
2022-09-11T04:28:16.201Z,96563.84
2022-09-11T04:30:42.543Z,96575.88
2022-09-11T04:33:08.880Z,96573.72
2022-09-11T04:35:35.200Z,96575.50
2022-09-11T04:38:01.543Z,96575.22
2022-09-11T04:40:27.869Z,96574.94
2022-09-11T04:42:54.194Z,96586.94
2022-09-11T04:45:20.519Z,96583.41
2022-09-11T04:47:46.841Z,96595.09
2022-09-11T04:50:13.151Z,96581.25
2022-09-11T04:52:39.468Z,96584.00
2022-09-11T04:55:05.785Z,96583.22
2022-09-11T04:57:32.099Z,96593.00
2022-09-11T04:59:58.416Z,96590.94
2022-09-11T05:02:24.821Z,96595.09
2022-09-11T05:04:51.240Z,96591.25
2022-09-11T05:07:17.568Z,96603.41
2022-09-11T05:09:43.875Z,96601.78
2022-09-11T05:12:10.196Z,96600.72
2022-09-11T05:14:36.528Z,96599.72
2022-09-11T05:17:02.848Z,96599.84
2022-09-11T05:19:29.168Z,96601.91
2022-09-11T05:21:55.493Z,96602.97
2022-09-11T05:24:21.808Z,96611.47
2022-09-11T05:26:48.141Z,96613.84
2022-09-11T05:29:14.467Z,96614.34
2022-09-11T05:31:40.870Z,96613.25
2022-09-11T05:34:07.213Z,96619.75
2022-09-11T05:36:33.546Z,96622.34
2022-09-11T05:38:59.863Z,96618.06
2022-09-11T05:41:26.188Z,96627.25
2022-09-11T05:43:52.519Z,96620.94
2022-09-11T05:46:18.839Z,96628.63
2022-09-11T05:48:45.155Z,96626.84
2022-09-11T05:51:11.508Z,96623.09
2022-09-11T05:53:37.829Z,96627.34
2022-09-11T05:56:04.148Z,96633.75
2022-09-11T05:58:30.484Z,96640.69
2022-09-11T06:00:56.893Z,96638.50
2022-09-11T06:03:23.224Z,96631.59
2022-09-11T06:05:49.544Z,96637.91
2022-09-11T06:08:15.852Z,96639.91
2022-09-11T06:10:42.165Z,96638.13
2022-09-11T06:13:08.483Z,96645.75
2022-09-11T06:15:46.726Z,96637.75
2022-09-11T06:18:13.447Z,96642.50
2022-09-11T06:20:39.778Z,96646.66
2022-09-11T06:23:09.139Z,96647.34
2022-09-11T06:25:35.741Z,96642.25
2022-09-11T06:28:02.069Z,96655.59
2022-09-11T06:30:28.441Z,96649.25
2022-09-11T06:32:54.832Z,96653.00
2022-09-11T06:35:21.145Z,96649.81
2022-09-11T06:37:47.468Z,96654.59
2022-09-11T06:40:13.830Z,96657.75
2022-09-11T06:42:40.174Z,96650.25
2022-09-11T06:45:06.500Z,96656.56
2022-09-11T06:47:32.831Z,96652.03
2022-09-11T06:49:59.157Z,96651.81
2022-09-11T06:52:25.476Z,96654.34
2022-09-11T06:54:51.792Z,96650.28
2022-09-11T06:57:18.120Z,96649.50
2022-09-11T06:59:44.458Z,96638.22
2022-09-11T07:02:10.940Z,96639.81
2022-09-11T07:04:37.376Z,96642.97
2022-09-11T07:07:03.706Z,96660.59
2022-09-11T07:09:30.039Z,96645.75
2022-09-11T07:11:56.373Z,96649.13
2022-09-11T07:14:22.688Z,96648.13
2022-09-11T07:16:49.021Z,96650.69
2022-09-11T07:19:15.381Z,96654.16
2022-09-11T07:21:41.704Z,96646.75
2022-09-11T07:24:08.037Z,96654.66
2022-09-11T07:26:34.375Z,96655.25
2022-09-11T07:29:00.692Z,96651.50
2022-09-11T07:31:27.013Z,96646.56
2022-09-11T07:33:53.339Z,96648.13
2022-09-11T07:36:19.654Z,96645.69
2022-09-11T07:38:45.971Z,96652.88
2022-09-11T07:41:12.306Z,96646.25
2022-09-11T07:43:38.661Z,96649.91
2022-09-11T07:46:05.056Z,96647.94
2022-09-11T07:48:31.420Z,96643.38
2022-09-11T07:50:57.750Z,96640.44
2022-09-11T07:53:24.064Z,96641.28
2022-09-11T07:55:50.401Z,96642.19
2022-09-11T07:58:16.724Z,96641.41
2022-09-11T08:00:43.043Z,96642.41
2022-09-11T08:03:09.448Z,96635.44
2022-09-11T08:05:35.772Z,96646.94
2022-09-11T08:08:02.097Z,96644.88
2022-09-11T08:10:28.480Z,96643.97
2022-09-11T08:12:59.205Z,96644.88
2022-09-11T08:15:26.045Z,96651.69
2022-09-11T08:17:52.351Z,96646.94
2022-09-11T08:20:18.672Z,96648.47
2022-09-11T08:22:44.998Z,96654.06
2022-09-11T08:25:11.330Z,96652.09
2022-09-11T08:27:37.647Z,96646.94
2022-09-11T08:30:03.992Z,96648.94
2022-09-11T08:32:30.316Z,96646.03
2022-09-11T08:34:56.641Z,96651.13
2022-09-11T08:37:22.964Z,96643.59
2022-09-11T08:39:49.311Z,96644.19
2022-09-11T08:42:15.660Z,96643.91
2022-09-11T08:44:41.976Z,96636.06
2022-09-11T08:47:08.296Z,96639.84
2022-09-11T08:49:34.640Z,96638.25
2022-09-11T08:52:00.966Z,96642.28
2022-09-11T08:54:27.291Z,96648.63
2022-09-11T08:56:53.613Z,96634.44
2022-09-11T08:59:19.939Z,96638.22
2022-09-11T09:01:46.322Z,96643.56
2022-09-11T09:04:12.678Z,96645.13
2022-09-11T09:06:39.033Z,96639.81
2022-09-11T09:09:05.367Z,96639.44
2022-09-11T09:11:31.700Z,96645.09
2022-09-11T09:13:58.028Z,96643.78
2022-09-11T09:16:24.348Z,96640.19
2022-09-11T09:18:50.673Z,96639.81
2022-09-11T09:21:17.019Z,96632.88
2022-09-11T09:23:43.445Z,96638.81
2022-09-11T09:26:09.809Z,96629.97
2022-09-11T09:28:36.144Z,96633.44
2022-09-11T09:31:02.512Z,96628.31
2022-09-11T09:33:28.844Z,96629.50
2022-09-11T09:35:55.164Z,96628.31
2022-09-11T09:38:25.062Z,96629.69
2022-09-11T09:40:53.318Z,96634.25
2022-09-11T09:43:19.645Z,96629.38
2022-09-11T09:45:46.006Z,96625.06
2022-09-11T09:48:12.364Z,96618.25
2022-09-11T09:50:38.696Z,96617.50
2022-09-11T09:53:05.030Z,96616.56
2022-09-11T09:55:31.357Z,96620.19
2022-09-11T09:57:57.687Z,96606.53
2022-09-11T10:00:24.004Z,96608.84
2022-09-11T10:02:50.332Z,96606.69
2022-09-11T10:05:16.648Z,96604.34
2022-09-11T10:07:42.968Z,96597.69
2022-09-11T10:10:09.294Z,96596.09
2022-09-11T10:12:35.609Z,96587.09
2022-09-11T10:15:01.939Z,96591.00
2022-09-11T10:17:28.299Z,96592.47
2022-09-11T10:19:54.634Z,96588.69
2022-09-11T10:22:20.961Z,96583.13
2022-09-11T10:24:47.292Z,96586.81
2022-09-11T10:27:13.629Z,96588.88
2022-09-11T10:29:39.952Z,96575.31
2022-09-11T10:32:06.271Z,96579.69
2022-09-11T10:34:32.592Z,96578.44
2022-09-11T10:36:58.917Z,96573.38
2022-09-11T10:39:25.224Z,96572.41
2022-09-11T10:41:51.629Z,96575.22
2022-09-11T10:44:17.944Z,96578.13
2022-09-11T10:46:44.271Z,96572.78
2022-09-11T10:49:10.587Z,96577.16
2022-09-11T10:51:36.911Z,96569.59
2022-09-11T10:54:03.242Z,96568.03
2022-09-11T10:56:29.571Z,96562.19
2022-09-11T10:58:55.890Z,96565.38
2022-09-11T11:01:22.252Z,96566.28
2022-09-11T11:03:48.619Z,96567.69
2022-09-11T11:06:14.953Z,96564.56
2022-09-11T11:08:41.310Z,96563.53
2022-09-11T11:11:07.699Z,96564.88
2022-09-11T11:13:34.025Z,96555.78
2022-09-11T11:16:00.392Z,96562.69
2022-09-11T11:18:26.741Z,96552.00
2022-09-11T11:20:53.057Z,96566.31
2022-09-11T11:23:19.376Z,96554.91
2022-09-11T11:25:45.700Z,96553.94
2022-09-11T11:28:12.015Z,96557.59
2022-09-11T11:30:38.340Z,96557.88
2022-09-11T11:33:04.669Z,96557.34
2022-09-11T11:35:30.997Z,96552.72
2022-09-11T11:37:57.316Z,96565.59
2022-09-11T11:40:23.636Z,96553.81
2022-09-11T11:42:54.017Z,96553.34
2022-09-11T11:45:22.328Z,96547.19
2022-09-11T11:47:48.650Z,96551.75
2022-09-11T11:50:14.968Z,96544.81
2022-09-11T11:52:41.291Z,96547.38
2022-09-11T11:55:07.608Z,96536.84
2022-09-11T11:57:33.928Z,96536.25
2022-09-11T12:00:00.265Z,96535.69
2022-09-11T12:02:26.601Z,96531.81
2022-09-11T12:04:52.920Z,96524.38
2022-09-11T12:07:19.247Z,96522.81
2022-09-11T12:09:45.585Z,96526.94
2022-09-11T12:12:11.899Z,96522.69
2022-09-11T12:14:38.216Z,96517.72
2022-09-11T12:17:04.542Z,96525.75
2022-09-11T12:19:30.867Z,96523.56
2022-09-11T12:21:57.195Z,96517.28
2022-09-11T12:24:23.510Z,96511.84
2022-09-11T12:26:49.828Z,96512.88
2022-09-11T12:29:16.153Z,96516.03
2022-09-11T12:31:42.510Z,96518.22
2022-09-11T12:34:08.872Z,96507.63
2022-09-11T12:36:35.185Z,96504.72
2022-09-11T12:39:01.509Z,96510.69
2022-09-11T12:41:27.840Z,96509.31
2022-09-11T12:43:54.165Z,96498.75
2022-09-11T12:46:20.503Z,96507.44
2022-09-11T12:49:00.324Z,96511.38
2022-09-11T12:51:33.128Z,96498.78
2022-09-11T12:53:59.451Z,96495.31
2022-09-11T12:56:25.769Z,96496.91
2022-09-11T12:58:52.091Z,96493.00
2022-09-11T13:01:18.443Z,96497.84
2022-09-11T13:03:44.780Z,96489.72
2022-09-11T13:06:11.108Z,96486.09
2022-09-11T13:08:37.430Z,96475.84
2022-09-11T13:11:03.745Z,96475.50
2022-09-11T13:13:30.064Z,96479.13
2022-09-11T13:15:56.440Z,96469.06
2022-09-11T13:18:22.797Z,96472.06
2022-09-11T13:20:49.116Z,96455.53
2022-09-11T13:23:15.449Z,96466.09
2022-09-11T13:25:41.771Z,96467.81
2022-09-11T13:28:08.093Z,96457.94
2022-09-11T13:30:34.403Z,96453.50
2022-09-11T13:33:00.739Z,96450.72
2022-09-11T13:35:27.074Z,96445.69
2022-09-11T13:37:53.411Z,96457.81
2022-09-11T13:40:19.733Z,96453.88
2022-09-11T13:42:46.056Z,96451.31
2022-09-11T13:45:12.368Z,96444.25
2022-09-11T13:47:38.693Z,96430.88
2022-09-11T13:50:05.020Z,96434.03
2022-09-11T13:52:31.349Z,96430.88
2022-09-11T13:54:57.667Z,96424.44
2022-09-11T13:57:23.989Z,96424.72
2022-09-11T13:59:50.298Z,96424.09
2022-09-11T14:02:16.647Z,96427.69
2022-09-11T14:04:42.992Z,96418.41
2022-09-11T14:07:09.319Z,96419.53
2022-09-11T14:09:35.645Z,96421.53
2022-09-11T14:12:01.974Z,96416.34
2022-09-11T14:14:28.361Z,96419.16
2022-09-11T14:16:54.676Z,96414.94
2022-09-11T14:19:20.982Z,96417.09
2022-09-11T14:21:47.306Z,96413.81
2022-09-11T14:24:13.632Z,96412.88
2022-09-11T14:26:39.947Z,96408.16
2022-09-11T14:29:06.268Z,96421.03
2022-09-11T14:31:32.694Z,96410.34
2022-09-11T14:33:59.073Z,96403.25
2022-09-11T14:36:25.407Z,96400.09
2022-09-11T14:38:51.730Z,96402.47
2022-09-11T14:41:18.040Z,96395.53
2022-09-11T14:43:48.861Z,96395.31
2022-09-11T14:46:15.788Z,96393.00
2022-09-11T14:48:42.145Z,96391.41
2022-09-11T14:51:13.266Z,96392.41
2022-09-11T14:53:39.943Z,96385.00
2022-09-11T14:56:06.319Z,96384.50
2022-09-11T14:58:32.643Z,96388.28
2022-09-11T15:00:58.977Z,96385.13
2022-09-11T15:03:25.380Z,96386.06
2022-09-11T15:05:51.828Z,96384.50
2022-09-11T15:08:18.145Z,96381.34
2022-09-11T15:10:44.476Z,96381.94
2022-09-11T15:13:10.800Z,96381.81
2022-09-11T15:15:37.132Z,96379.78
2022-09-11T15:18:03.447Z,96372.03
2022-09-11T15:20:29.825Z,96368.47
2022-09-11T15:22:56.144Z,96363.09
2022-09-11T15:25:22.472Z,96373.81
2022-09-11T15:27:48.805Z,96367.97
2022-09-11T15:30:15.124Z,96363.72
2022-09-11T15:32:41.448Z,96356.75
2022-09-11T15:35:07.774Z,96348.00
2022-09-11T15:37:34.119Z,96350.69
2022-09-11T15:40:00.546Z,96350.69
2022-09-11T15:42:26.933Z,96347.25
2022-09-11T15:44:53.361Z,96348.00
2022-09-11T15:47:19.675Z,96350.06
2022-09-11T15:49:46.018Z,96347.69
2022-09-11T15:52:12.345Z,96349.91
2022-09-11T15:54:38.678Z,96349.59
2022-09-11T15:57:05.011Z,96347.84
2022-09-11T15:59:31.341Z,96354.59
2022-09-11T16:01:57.743Z,96340.16
2022-09-11T16:04:24.133Z,96347.06
2022-09-11T16:06:50.467Z,96344.25
2022-09-11T16:09:16.785Z,96342.97
2022-09-11T16:11:43.115Z,96333.69
2022-09-11T16:14:09.434Z,96338.41
2022-09-11T16:16:36.830Z,96336.16
2022-09-11T16:19:03.824Z,96339.53
2022-09-11T16:21:30.143Z,96340.28
2022-09-11T16:24:01.299Z,96339.53
2022-09-11T16:26:27.972Z,96340.16
2022-09-11T16:28:54.294Z,96334.81
2022-09-11T16:31:20.633Z,96340.72
2022-09-11T16:33:47.008Z,96344.25
2022-09-11T16:36:17.100Z,96339.97
2022-09-11T16:38:43.664Z,96336.84
2022-09-11T16:41:09.992Z,96343.41
2022-09-11T16:43:36.314Z,96345.06
2022-09-11T16:46:02.673Z,96337.03
2022-09-11T16:48:29.004Z,96338.00
2022-09-11T16:50:55.336Z,96335.53
2022-09-11T16:53:21.667Z,96347.47
2022-09-11T16:55:47.990Z,96341.75
2022-09-11T16:58:14.331Z,96346.47
2022-09-11T17:00:40.683Z,96343.00
2022-09-11T17:03:07.049Z,96344.19
2022-09-11T17:05:33.363Z,96340.25
2022-09-11T17:07:59.689Z,96336.19
2022-09-11T17:10:26.004Z,96341.34
2022-09-11T17:12:52.323Z,96338.16
2022-09-11T17:15:18.641Z,96341.88
2022-09-11T17:17:44.966Z,96339.88
2022-09-11T17:20:11.302Z,96336.16
2022-09-11T17:22:37.642Z,96348.72
2022-09-11T17:25:03.959Z,96351.09
2022-09-11T17:27:30.276Z,96336.78
2022-09-11T17:29:56.609Z,96331.22
2022-09-11T17:32:30.059Z,96333.75
2022-09-11T17:34:56.416Z,96336.22
2022-09-11T17:37:22.744Z,96333.41
2022-09-11T17:39:49.109Z,96327.19
2022-09-11T17:42:15.442Z,96328.59
2022-09-11T17:44:41.787Z,96335.66
2022-09-11T17:47:08.117Z,96328.44
2022-09-11T17:49:34.452Z,96330.56
2022-09-11T17:52:00.788Z,96335.28
2022-09-11T17:54:27.189Z,96332.44
2022-09-11T17:56:53.512Z,96336.91
2022-09-11T17:59:19.836Z,96336.72
2022-09-11T18:01:46.227Z,96333.09
2022-09-11T18:04:12.620Z,96336.09
2022-09-11T18:06:38.950Z,96338.63
2022-09-11T18:09:05.290Z,96331.81
2022-09-11T18:11:31.613Z,96334.50
2022-09-11T18:13:57.954Z,96339.38
2022-09-11T18:16:24.334Z,96344.09
2022-09-11T18:18:50.706Z,96336.97
2022-09-11T18:21:17.030Z,96342.53
2022-09-11T18:23:43.404Z,96342.88
2022-09-11T18:26:09.844Z,96341.75
2022-09-11T18:28:36.177Z,96331.63
2022-09-11T18:31:02.579Z,96341.50
2022-09-11T18:33:28.949Z,96339.25
2022-09-11T18:35:55.280Z,96348.25
2022-09-11T18:38:21.604Z,96350.91
2022-09-11T18:40:47.933Z,96348.00
2022-09-11T18:43:14.271Z,96350.75
2022-09-11T18:45:40.602Z,96354.19
2022-09-11T18:48:06.940Z,96356.44
2022-09-11T18:50:33.258Z,96361.16
2022-09-11T18:53:00.218Z,96357.34
2022-09-11T18:55:26.651Z,96362.06
2022-09-11T18:57:52.985Z,96364.59
2022-09-11T19:00:19.315Z,96362.81
2022-09-11T19:02:45.645Z,96367.75
2022-09-11T19:05:12.013Z,96363.81
2022-09-11T19:07:38.349Z,96368.38
2022-09-11T19:10:04.675Z,96379.34
2022-09-11T19:12:31.005Z,96374.75
2022-09-11T19:14:57.332Z,96379.34
2022-09-11T19:17:23.673Z,96383.47
2022-09-11T19:19:50.007Z,96377.28
2022-09-11T19:22:16.332Z,96384.19
2022-09-11T19:24:42.667Z,96377.41
2022-09-11T19:27:08.996Z,96384.91
2022-09-11T19:29:35.331Z,96384.81
2022-09-11T19:32:01.662Z,96382.88
2022-09-11T19:34:27.996Z,96380.50
2022-09-11T19:36:54.454Z,96375.03
2022-09-11T19:39:20.823Z,96378.13
2022-09-11T19:41:47.152Z,96377.31
2022-09-11T19:44:13.477Z,96388.63
2022-09-11T19:46:39.857Z,96387.69
2022-09-11T19:49:06.227Z,96390.34
2022-09-11T19:51:32.552Z,96383.78
2022-09-11T19:54:00.384Z,96392.41
2022-09-11T19:56:26.927Z,96392.41
2022-09-11T19:58:53.263Z,96386.69
2022-09-11T20:01:19.599Z,96392.28
2022-09-11T20:03:45.950Z,96393.50
2022-09-11T20:06:12.393Z,96391.69
2022-09-11T20:08:38.714Z,96396.03
2022-09-11T20:11:05.032Z,96403.34
2022-09-11T20:13:31.363Z,96393.50
2022-09-11T20:15:57.695Z,96394.09
2022-09-11T20:18:24.041Z,96395.06
2022-09-11T20:20:50.360Z,96399.03
2022-09-11T20:23:16.698Z,96393.88
2022-09-11T20:25:43.024Z,96398.13
2022-09-11T20:28:09.349Z,96401.00
2022-09-11T20:30:35.694Z,96400.81
2022-09-11T20:33:02.024Z,96398.47
2022-09-11T20:35:28.352Z,96393.91
2022-09-11T20:37:54.678Z,96399.69
2022-09-11T20:40:20.995Z,96392.75
2022-09-11T20:42:47.313Z,96392.03
2022-09-11T20:45:13.640Z,96388.03
2022-09-11T20:47:39.947Z,96390.31
2022-09-11T20:50:06.274Z,96382.19
2022-09-11T20:52:35.003Z,96393.88
2022-09-11T20:55:05.045Z,96391.06
2022-09-11T20:57:31.374Z,96397.56
2022-09-11T20:59:57.712Z,96393.34
2022-09-11T21:02:24.061Z,96393.03
2022-09-11T21:04:50.404Z,96393.31
2022-09-11T21:07:16.740Z,96391.25
2022-09-11T21:09:43.068Z,96391.19
2022-09-11T21:12:09.379Z,96384.78
2022-09-11T21:14:35.700Z,96382.56
2022-09-11T21:17:02.020Z,96383.75
2022-09-11T21:19:28.333Z,96381.25
2022-09-11T21:21:54.669Z,96386.94
2022-09-11T21:24:20.993Z,96381.25
2022-09-11T21:26:47.325Z,96391.31
2022-09-11T21:29:13.658Z,96383.75
2022-09-11T21:31:40.141Z,96377.72
2022-09-11T21:34:06.680Z,96382.88
2022-09-11T21:36:33.017Z,96383.84
2022-09-11T21:38:59.351Z,96385.75
2022-09-11T21:41:25.666Z,96384.28
2022-09-11T21:43:51.988Z,96384.03
2022-09-11T21:46:18.347Z,96384.28
2022-09-11T21:48:44.693Z,96389.38
2022-09-11T21:51:11.025Z,96385.06
2022-09-11T21:53:37.327Z,96381.41
2022-09-11T21:56:03.640Z,96391.19
2022-09-11T21:58:29.957Z,96384.28
2022-09-11T22:00:56.302Z,96390.22
2022-09-11T22:03:22.637Z,96386.66
2022-09-11T22:05:48.955Z,96386.09
2022-09-11T22:08:15.289Z,96384.91
2022-09-11T22:10:41.639Z,96391.91
2022-09-11T22:13:07.955Z,96379.78
2022-09-11T22:15:34.272Z,96379.41
2022-09-11T22:18:00.612Z,96381.06
2022-09-11T22:20:26.943Z,96388.47
2022-09-11T22:22:53.280Z,96386.81
2022-09-11T22:25:19.593Z,96383.44
2022-09-11T22:27:45.912Z,96390.84
2022-09-11T22:30:12.231Z,96390.03
2022-09-11T22:32:38.548Z,96386.09
2022-09-11T22:35:04.877Z,96380.78
2022-09-11T22:37:31.208Z,96384.91
2022-09-11T22:39:57.564Z,96373.19
2022-09-11T22:42:23.893Z,96385.16
2022-09-11T22:44:50.216Z,96381.19
2022-09-11T22:47:16.541Z,96381.78
2022-09-11T22:49:42.870Z,96379.88
2022-09-11T22:52:09.200Z,96380.19
2022-09-11T22:54:35.521Z,96381.78
2022-09-11T22:57:01.852Z,96377.81
2022-09-11T22:59:28.172Z,96381.78
2022-09-11T23:01:54.564Z,96388.09
2022-09-11T23:04:20.942Z,96381.19
2022-09-11T23:06:47.257Z,96388.16
2022-09-11T23:09:13.576Z,96381.09
2022-09-11T23:11:39.891Z,96386.13
2022-09-11T23:14:09.342Z,96381.09
2022-09-11T23:16:39.606Z,96383.47
2022-09-11T23:19:05.950Z,96378.81
2022-09-11T23:21:32.269Z,96382.56
2022-09-11T23:23:58.578Z,96372.88
2022-09-11T23:26:24.913Z,96378.66
2022-09-11T23:28:51.255Z,96385.72
2022-09-11T23:31:17.644Z,96379.78
2022-09-11T23:33:44.117Z,96378.97
2022-09-11T23:36:10.565Z,96378.63
2022-09-11T23:38:36.899Z,96385.72
2022-09-11T23:41:03.221Z,96380.03
2022-09-11T23:43:29.543Z,96374.56
2022-09-11T23:45:55.874Z,96382.94
2022-09-11T23:48:22.221Z,96384.75
2022-09-11T23:50:48.537Z,96376.75
2022-09-11T23:53:14.859Z,96374.09
2022-09-11T23:55:42.485Z,96367.75
2022-09-11T23:58:08.869Z,96376.50
